Time;durP1;ratioP1;P1;durP2;ratioP2;P2;SDS_P1;SDS_P2;PMS_P1;PMS_P2;Temp;Humidity;BMP_temperature;BMP_pressure;BME280_temperature;BME280_humidity;BME280_pressure;Samples;Min_cycle;Max_cycle;Signal;HPM_P1;HPM_P2
2022/09/15 00:01:01;;;;;;;5.57;3.25;;;15.50;96.20;;;;;;4938191;28;94767;-72
2022/09/15 00:03:28;;;;;;;3.95;2.53;;;15.50;96.30;;;;;;4938814;28;98427;-72
2022/09/15 00:05:55;;;;;;;6.25;2.95;;;15.50;96.50;;;;;;4921714;28;95739;-72
2022/09/15 00:08:23;;;;;;;5.75;3.80;;;15.50;96.50;;;;;;4937792;28;92929;-72
2022/09/15 00:11:10;;;;;;;6.22;3.17;;;15.50;96.20;;;;;;4937789;28;92438;-72
2022/09/15 00:13:38;;;;;;;3.97;2.92;;;15.50;96.40;;;;;;4937791;28;92542;-72
2022/09/15 00:16:06;;;;;;;5.25;3.35;;;15.50;96.50;;;;;;4921534;28;92532;-72
2022/09/15 00:18:34;;;;;;;5.35;2.75;;;15.50;96.40;;;;;;4938062;28;93051;-73
2022/09/15 00:21:05;;;;;;;4.50;2.70;;;15.60;96.40;;;;;;4937794;28;92433;-72
2022/09/15 00:23:32;;;;;;;4.07;2.50;;;15.60;96.50;;;;;;4939001;28;92478;-73
2022/09/15 00:25:59;;;;;;;5.50;3.47;;;15.70;96.40;;;;;;4937720;28;95760;-72
2022/09/15 00:28:26;;;;;;;6.97;3.20;;;15.80;96.30;;;;;;4937569;28;94008;-72
2022/09/15 00:30:54;;;;;;;6.35;2.35;;;15.80;96.30;;;;;;4938599;28;100878;-73
2022/09/15 00:33:22;;;;;;;7.00;2.70;;;15.80;96.20;;;;;;4938906;28;92453;-72
2022/09/15 00:35:52;;;;;;;4.03;3.13;;;15.90;96.30;;;;;;4936911;28;94284;-72
2022/09/15 00:38:20;;;;;;;5.28;3.75;;;15.90;96.20;;;;;;4938579;28;92791;-72
2022/09/15 00:40:52;;;;;;;4.05;3.22;;;15.90;96.20;;;;;;4937144;28;93206;-72
2022/09/15 00:43:41;;;;;;;6.40;3.73;;;16.00;96.20;;;;;;4939109;28;91722;-72
2022/09/15 00:46:09;;;;;;;4.88;4.10;;;16.00;96.30;;;;;;4938293;28;93130;-72
2022/09/15 00:48:40;;;;;;;6.47;4.65;;;16.00;96.30;;;;;;4936990;28;92527;-72
2022/09/15 00:51:08;;;;;;;8.00;3.75;;;16.00;96.20;;;;;;4937637;28;94898;-72
2022/09/15 00:53:36;;;;;;;6.32;3.75;;;16.10;96.20;;;;;;4936793;28;92905;-72
2022/09/15 00:56:05;;;;;;;4.68;3.78;;;16.10;96.30;;;;;;4937175;28;93216;-72
2022/09/15 00:58:47;;;;;;;4.90;3.25;;;16.10;96.70;;;;;;4937064;28;95815;-72
2022/09/15 01:01:15;;;;;;;4.60;4.20;;;16.20;96.90;;;;;;4937517;28;92424;-72
2022/09/15 01:03:42;;;;;;;7.10;4.07;;;16.20;97.10;;;;;;4938155;28;92441;-72
2022/09/15 01:06:14;;;;;;;6.63;4.68;;;16.20;97.20;;;;;;4904525;28;96305;-72
2022/09/15 01:08:51;;;;;;;5.80;4.47;;;16.20;97.10;;;;;;4938422;28;92954;-72
2022/09/15 01:11:18;;;;;;;6.75;4.38;;;16.30;97.10;;;;;;4937456;28;92430;-72
2022/09/15 01:13:45;;;;;;;6.13;3.30;;;16.20;97.20;;;;;;4938286;28;92375;-73
2022/09/15 01:16:50;;;;;;;5.85;3.17;;;16.20;97.30;;;;;;4935184;28;104071;-72
2022/09/15 01:19:26;;;;;;;5.10;3.60;;;16.30;97.20;;;;;;4938154;28;95484;-72
2022/09/15 01:22:02;;;;;;;5.28;3.35;;;16.20;97.40;;;;;;4936578;28;93089;-72
2022/09/15 01:24:51;;;;;;;5.03;3.80;;;16.30;97.40;;;;;;4938332;28;92484;-72
2022/09/15 01:27:39;;;;;;;4.45;4.03;;;16.30;97.30;;;;;;4920309;28;97698;-72
2022/09/15 01:30:20;;;;;;;5.32;4.82;;;16.30;97.30;;;;;;4920789;28;94378;-72
2022/09/15 01:33:11;;;;;;;4.55;3.70;;;16.20;97.60;;;;;;4938096;28;92507;-72
2022/09/15 01:36:00;;;;;;;5.65;3.55;;;16.30;97.40;;;;;;4938181;28;92021;-72
2022/09/15 01:38:43;;;;;;;6.68;4.38;;;16.30;97.40;;;;;;4936385;28;95953;-73
2022/09/15 01:41:17;;;;;;;5.30;3.85;;;16.30;97.30;;;;;;4937415;28;93061;-72
2022/09/15 01:44:10;;;;;;;7.95;4.53;;;16.30;97.40;;;;;;4934908;28;94944;-72
2022/09/15 01:46:51;;;;;;;8.40;4.90;;;16.30;97.40;;;;;;4907023;28;92571;-72
2022/09/15 01:49:24;;;;;;;7.40;4.07;;;16.30;97.40;;;;;;4936401;28;95763;-72
2022/09/15 01:51:52;;;;;;;;;;;16.30;97.60;;;;;;4936442;28;97425;-72
2022/09/15 01:54:25;;;;;;;7.70;4.68;;;16.20;97.70;;;;;;4938971;28;92935;-72
2022/09/15 01:56:52;;;;;;;6.38;5.00;;;16.10;97.80;;;;;;4937586;28;92427;-72
2022/09/15 01:59:20;;;;;;;6.20;3.88;;;16.20;97.80;;;;;;4935923;28;95839;-72
2022/09/15 02:02:02;;;;;;;9.45;5.47;;;16.20;97.70;;;;;;4937615;28;92690;-72
2022/09/15 02:04:40;;;;;;;8.27;4.28;;;16.20;97.60;;;;;;4920146;28;92445;-73
2022/09/15 02:07:19;;;;;;;4.50;3.90;;;16.20;97.60;;;;;;4937477;28;92402;-72
2022/09/15 02:10:00;;;;;;;5.63;4.68;;;16.20;97.60;;;;;;4935867;28;95786;-72
2022/09/15 02:12:41;;;;;;;7.20;4.00;;;16.20;97.60;;;;;;4935902;28;95336;-72
2022/09/15 02:15:14;;;;;;;8.23;4.03;;;16.20;97.60;;;;;;4935994;28;92534;-72
2022/09/15 02:17:44;;;;;;;;;;;16.20;97.70;;;;;;4936649;28;93031;-72
2022/09/15 02:20:16;;;;;;;6.93;4.03;;;16.10;97.70;;;;;;4936951;28;96636;-72
2022/09/15 02:22:48;;;;;;;5.43;4.60;;;16.10;97.80;;;;;;4935902;28;95435;-72
2022/09/15 02:25:25;;;;;;;7.75;3.45;;;16.20;97.70;;;;;;4937451;28;92493;-72
2022/09/15 02:27:56;;;;;;;7.82;3.92;;;16.20;97.70;;;;;;4935774;28;91845;-72
2022/09/15 02:30:23;;;;;;;3.50;3.20;;;16.20;97.70;;;;;;4935600;28;96060;-73
2022/09/15 02:33:05;;;;;;;6.63;3.35;;;16.20;97.60;;;;;;4936799;28;92922;-72
2022/09/15 02:35:34;;;;;;;5.45;4.18;;;16.20;97.60;;;;;;4934621;28;94851;-72
2022/09/15 02:38:05;;;;;;;4.22;2.83;;;16.20;97.60;;;;;;4919380;28;92413;-73
2022/09/15 02:40:32;;;;;;;6.38;2.80;;;16.20;97.60;;;;;;4936296;28;93159;-73
2022/09/15 02:43:01;;;;;;;4.32;4.03;;;16.20;97.60;;;;;;4935412;28;93095;-72
2022/09/15 02:45:32;;;;;;;3.65;2.63;;;16.20;97.60;;;;;;4936885;28;92444;-73
2022/09/15 02:47:59;;;;;;;9.75;2.83;;;16.20;97.50;;;;;;4936901;28;92449;-72
2022/09/15 02:50:26;;;;;;;4.35;2.55;;;16.20;97.50;;;;;;4936388;28;93160;-72
2022/09/15 02:52:54;;;;;;;4.63;3.60;;;16.20;97.50;;;;;;4936865;28;91986;-72
2022/09/15 02:55:21;;;;;;;6.82;2.92;;;16.20;97.40;;;;;;4934359;28;112582;-72
2022/09/15 02:57:48;;;;;;;6.32;2.10;;;16.20;97.40;;;;;;4935699;28;93362;-72
2022/09/15 03:00:17;;;;;;;7.63;4.00;;;16.20;97.40;;;;;;4935239;28;95685;-73
2022/09/15 03:02:49;;;;;;;5.43;2.72;;;16.10;97.40;;;;;;4919327;28;98149;-72
2022/09/15 03:05:19;;;;;;;4.38;1.55;;;16.20;97.40;;;;;;4936295;28;93215;-72
2022/09/15 03:07:46;;;;;;;3.85;2.00;;;16.10;97.20;;;;;;4936866;28;92351;-72
2022/09/15 03:10:13;;;;;;;4.70;1.67;;;16.10;97.20;;;;;;4934748;28;106183;-73
2022/09/15 03:12:51;;;;;;;5.07;2.13;;;16.00;97.30;;;;;;4936571;28;93023;-73
2022/09/15 03:15:21;;;;;;;4.50;1.80;;;16.00;97.10;;;;;;4935034;28;92513;-73
2022/09/15 03:17:48;;;;;;;4.18;1.73;;;16.00;97.30;;;;;;4935415;28;91668;-73
2022/09/15 03:20:19;;;;;;;6.65;2.42;;;16.00;97.40;;;;;;4936237;28;92597;-72
2022/09/15 03:22:47;;;;;;;6.07;2.05;;;16.00;97.40;;;;;;4936446;28;93059;-72
2022/09/15 03:25:15;;;;;;;3.92;2.97;;;16.00;97.50;;;;;;4934811;28;96915;-73
2022/09/15 03:27:42;;;;;;;5.85;1.65;;;15.90;97.50;;;;;;4936104;28;92436;-72
2022/09/15 03:30:10;;;;;;;6.55;3.47;;;15.90;97.70;;;;;;4921934;28;94409;-72
2022/09/15 03:32:37;;;;;;;4.80;2.20;;;15.90;97.50;;;;;;4939813;28;92869;-72
2022/09/15 03:35:05;;;;;;;5.32;2.03;;;15.90;97.30;;;;;;4938507;28;92411;-73
2022/09/15 03:37:33;;;;;;;4.95;1.40;;;15.90;97.40;;;;;;4939821;28;92430;-72
2022/09/15 03:40:00;;;;;;;4.25;1.50;;;15.90;97.00;;;;;;4937209;28;106333;-73
2022/09/15 03:42:27;;;;;;;6.57;2.13;;;15.90;97.00;;;;;;4940031;28;92883;-73
2022/09/15 03:44:53;;;;;;;5.93;2.35;;;15.90;97.00;;;;;;4939570;28;93336;-73
2022/09/15 03:47:20;;;;;;;7.35;1.90;;;15.90;96.90;;;;;;4938268;28;92633;-73
2022/09/15 03:49:47;;;;;;;6.50;2.05;;;15.90;96.80;;;;;;4937835;28;106841;-72
2022/09/15 03:52:14;;;;;;;6.18;1.85;;;16.00;96.70;;;;;;4939225;28;95554;-72
2022/09/15 03:54:41;;;;;;;4.45;3.08;;;16.00;96.60;;;;;;4939632;28;92965;-72
2022/09/15 03:57:08;;;;;;;2.42;1.27;;;16.00;96.60;;;;;;4939183;28;92442;-72
2022/09/15 03:59:35;;;;;;;4.18;2.13;;;16.00;96.60;;;;;;4921866;28;95697;-72
2022/09/15 04:02:02;;;;;;;5.05;1.88;;;16.00;96.40;;;;;;4937554;28;95611;-72
2022/09/15 04:04:30;;;;;;;6.15;1.38;;;16.00;96.40;;;;;;4938157;28;92994;-72
2022/09/15 04:06:57;;;;;;;5.57;1.40;;;16.00;96.30;;;;;;4938226;28;92348;-72
2022/09/15 04:09:24;;;;;;;4.63;1.52;;;16.00;96.60;;;;;;4937641;28;93062;-72
2022/09/15 04:11:51;;;;;;;5.55;1.25;;;16.00;96.20;;;;;;4937900;28;93173;-72
2022/09/15 04:14:18;;;;;;;6.15;2.88;;;16.10;96.20;;;;;;4938088;28;95489;-73
2022/09/15 04:16:45;;;;;;;5.95;1.20;;;16.00;96.00;;;;;;4939117;28;92392;-72
2022/09/15 04:19:13;;;;;;;2.97;1.63;;;16.00;96.00;;;;;;4937470;28;94219;-72
2022/09/15 04:21:40;;;;;;;5.03;2.85;;;16.00;95.90;;;;;;4937847;28;92936;-72
2022/09/15 04:24:07;;;;;;;6.47;2.10;;;16.00;95.90;;;;;;4937675;28;92574;-72
2022/09/15 04:26:35;;;;;;;7.65;1.75;;;16.00;95.90;;;;;;4938543;28;96188;-73
2022/09/15 04:29:04;;;;;;;4.25;2.25;;;16.00;95.90;;;;;;4938687;28;93339;-73
2022/09/15 04:31:32;;;;;;;5.90;1.63;;;16.00;95.90;;;;;;4939074;28;93021;-72
2022/09/15 04:33:59;;;;;;;4.63;2.38;;;16.00;96.00;;;;;;4937681;28;92523;-72
2022/09/15 04:36:27;;;;;;;6.05;1.40;;;16.00;96.10;;;;;;4937284;28;92960;-72
2022/09/15 04:38:55;;;;;;;5.30;1.30;;;16.00;96.20;;;;;;4936618;28;95831;-72
2022/09/15 04:41:23;;;;;;;2.75;1.58;;;16.00;96.20;;;;;;4937800;28;95382;-72
2022/09/15 04:43:50;;;;;;;4.15;1.77;;;16.00;96.10;;;;;;4937418;28;92401;-72
2022/09/15 04:46:18;;;;;;;6.30;1.30;;;16.00;96.10;;;;;;4921350;28;92468;-73
2022/09/15 04:48:46;;;;;;;8.50;2.47;;;15.90;96.10;;;;;;4937397;28;93113;-72
2022/09/15 04:51:17;;;;;;;5.18;2.25;;;16.00;96.10;;;;;;4938377;28;93283;-72
2022/09/15 04:53:45;;;;;;;9.82;1.50;;;16.00;96.00;;;;;;4938850;28;92966;-72
2022/09/15 04:56:15;;;;;;;6.47;1.45;;;15.90;95.90;;;;;;4938152;28;105789;-72
2022/09/15 04:58:45;;;;;;;5.75;2.20;;;16.00;95.70;;;;;;4938579;28;93341;-72
2022/09/15 05:01:21;;;;;;;7.05;2.60;;;15.90;95.50;;;;;;4936620;28;93017;-72
2022/09/15 05:03:49;;;;;;;6.72;1.60;;;15.90;95.40;;;;;;4935972;28;94853;-73
2022/09/15 05:06:18;;;;;;;2.30;0.88;;;15.90;95.20;;;;;;4937948;28;92418;-72
2022/09/15 05:08:54;;;;;;;5.30;2.33;;;15.80;95.10;;;;;;4938232;28;93182;-72
2022/09/15 05:11:22;;;;;;;5.68;1.38;;;15.80;95.00;;;;;;4938227;28;93340;-72
2022/09/15 05:13:49;;;;;;;5.82;1.60;;;15.70;95.00;;;;;;4938340;28;92484;-73
2022/09/15 05:16:21;;;;;;;4.90;1.17;;;15.70;94.90;;;;;;4938072;28;92807;-72
2022/09/15 05:18:50;;;;;;;8.88;1.45;;;15.70;94.90;;;;;;4936741;28;93471;-72
2022/09/15 05:21:19;;;;;;;6.57;1.23;;;15.60;95.00;;;;;;4936535;28;95671;-72
2022/09/15 05:23:47;;;;;;;4.32;1.23;;;15.60;95.10;;;;;;4920599;28;92510;-73
2022/09/15 05:26:17;;;;;;;7.00;1.52;;;15.70;95.10;;;;;;4936391;28;92937;-72
2022/09/15 05:28:45;;;;;;;5.30;1.67;;;15.70;95.20;;;;;;4936476;28;97783;-72
2022/09/15 05:31:19;;;;;;;5.55;2.75;;;15.70;95.20;;;;;;4936254;28;95453;-73
2022/09/15 05:33:47;;;;;;;4.28;1.13;;;15.80;95.20;;;;;;4937101;28;92565;-72
2022/09/15 05:36:16;;;;;;;4.43;1.30;;;15.80;95.30;;;;;;4936508;28;92512;-72
2022/09/15 05:38:43;;;;;;;5.55;2.20;;;15.80;95.30;;;;;;4937459;28;101234;-72
2022/09/15 05:41:16;;;;;;;6.50;2.45;;;15.80;95.40;;;;;;4937503;28;93169;-72
2022/09/15 05:43:45;;;;;;;4.80;1.88;;;15.80;95.40;;;;;;4937748;28;92367;-73
2022/09/15 05:46:14;;;;;;;7.43;2.00;;;15.80;95.50;;;;;;4920378;28;91832;-72
2022/09/15 05:48:41;;;;;;;5.32;1.75;;;15.80;95.60;;;;;;4920031;28;95651;-72
2022/09/15 05:51:08;;;;;;;7.63;2.80;;;15.80;95.60;;;;;;4937326;28;93290;-72
2022/09/15 05:53:35;;;;;;;5.35;1.90;;;15.70;95.70;;;;;;4935162;28;94825;-72
2022/09/15 05:56:15;;;;;;;4.38;1.70;;;15.70;95.70;;;;;;4937324;28;92469;-72
2022/09/15 05:58:45;;;;;;;3.88;1.58;;;15.70;95.80;;;;;;4936123;28;93094;-72
2022/09/15 06:01:21;;;;;;;4.88;2.40;;;15.70;95.90;;;;;;4937135;28;92534;-72
2022/09/15 06:03:48;;;;;;;8.15;2.10;;;15.70;95.80;;;;;;4936030;28;92514;-72
2022/09/15 06:06:15;;;;;;;5.68;1.70;;;15.70;95.80;;;;;;4936336;28;92515;-72
2022/09/15 06:08:45;;;;;;;6.85;1.40;;;15.80;95.70;;;;;;4935499;28;101214;-72
2022/09/15 06:11:16;;;;;;;4.13;1.52;;;15.80;95.70;;;;;;4936063;28;95484;-72
2022/09/15 06:13:44;;;;;;;4.85;1.50;;;15.80;95.50;;;;;;4937131;28;92358;-72
2022/09/15 06:16:19;;;;;;;9.10;2.20;;;15.90;95.50;;;;;;4937199;28;92470;-73
2022/09/15 06:18:47;;;;;;;5.57;4.10;;;16.10;95.40;;;;;;4934652;28;97990;-72
2022/09/15 06:21:16;;;;;;;5.00;1.83;;;16.30;95.30;;;;;;4936556;28;95220;-72
2022/09/15 06:23:44;;;;;;;8.25;2.40;;;16.60;95.00;;;;;;4936971;28;92362;-73
2022/09/15 06:26:17;;;;;;;10.23;1.77;;;16.80;94.60;;;;;;4920466;28;92419;-72
2022/09/15 06:28:50;;;;;;;5.95;1.42;;;17.10;94.10;;;;;;4936791;28;93130;-73
2022/09/15 06:31:18;;;;;;;6.77;1.77;;;17.30;93.60;;;;;;4937196;28;93062;-73
2022/09/15 06:33:47;;;;;;;4.53;1.42;;;17.40;93.20;;;;;;4935435;28;93098;-72
2022/09/15 06:36:15;;;;;;;8.38;2.10;;;17.50;92.90;;;;;;4935913;28;91722;-73
2022/09/15 06:38:42;;;;;;;4.18;2.00;;;17.40;92.60;;;;;;4936556;28;93312;-73
2022/09/15 06:41:10;;;;;;;4.75;2.00;;;17.50;92.20;;;;;;4936376;28;93189;-73
2022/09/15 06:43:38;;;;;;;4.35;1.80;;;17.50;91.80;;;;;;4935362;28;94898;-73
2022/09/15 06:46:07;;;;;;;5.68;2.65;;;17.50;91.50;;;;;;4936966;28;92432;-73
2022/09/15 06:48:36;;;;;;;6.03;2.33;;;17.50;91.20;;;;;;4919208;28;96352;-72
2022/09/15 06:51:04;;;;;;;3.42;1.60;;;17.60;91.00;;;;;;4936456;28;93041;-73
2022/09/15 06:53:33;;;;;;;6.38;2.42;;;17.70;91.10;;;;;;4936809;28;92780;-72
2022/09/15 06:56:12;;;;;;;5.57;1.25;;;17.80;90.70;;;;;;4935058;28;92408;-72
2022/09/15 06:58:41;;;;;;;4.05;2.40;;;18.00;90.50;;;;;;4934986;28;95870;-73
2022/09/15 07:01:11;;;;;;;5.13;1.13;;;18.10;90.40;;;;;;4919261;28;100539;-73
2022/09/15 07:03:40;;;;;;;6.45;2.05;;;18.10;89.30;;;;;;4935927;28;92761;-73
2022/09/15 07:06:08;;;;;;;4.35;1.48;;;18.10;89.50;;;;;;4934975;28;92470;-73
2022/09/15 07:08:34;;;;;;;7.53;1.70;;;18.20;89.80;;;;;;4935031;28;95579;-72
2022/09/15 07:11:01;;;;;;;6.78;2.67;;;18.30;89.90;;;;;;4936315;28;95599;-72
2022/09/15 07:13:29;;;;;;;4.80;2.70;;;18.30;89.50;;;;;;4935129;28;92515;-73
2022/09/15 07:15:58;;;;;;;6.53;2.63;;;18.40;89.50;;;;;;4935024;28;92456;-73
2022/09/15 07:18:26;;;;;;;7.95;2.13;;;18.50;89.50;;;;;;4934756;28;96061;-73
2022/09/15 07:21:04;;;;;;;9.30;1.92;;;18.60;88.70;;;;;;4935660;28;103515;-73
2022/09/15 07:23:33;;;;;;;5.15;2.42;;;18.60;88.50;;;;;;4936425;28;92396;-73
2022/09/15 07:26:05;;;;;;;8.20;1.30;;;18.70;88.50;;;;;;4935358;28;92338;-73
2022/09/15 07:28:32;;;;;;;6.03;1.60;;;18.80;88.00;;;;;;4934610;28;94260;-73
2022/09/15 07:30:59;;;;;;;5.65;1.63;;;18.80;88.20;;;;;;4934910;28;93301;-73
2022/09/15 07:33:27;;;;;;;5.28;1.38;;;18.80;87.60;;;;;;4935152;28;95323;-73
2022/09/15 07:35:54;;;;;;;5.03;3.00;;;18.90;87.20;;;;;;4936183;28;93022;-73
2022/09/15 07:38:21;;;;;;;5.63;2.40;;;19.00;87.20;;;;;;4934706;28;93172;-73
2022/09/15 07:40:48;;;;;;;7.20;2.30;;;19.10;86.70;;;;;;4935253;28;92943;-73
2022/09/15 07:43:15;;;;;;;8.10;5.30;;;19.20;86.10;;;;;;4934811;28;92511;-73
2022/09/15 07:45:43;;;;;;;4.57;2.03;;;19.40;85.80;;;;;;4935702;28;95765;-73
2022/09/15 07:48:10;;;;;;;4.38;2.30;;;19.50;84.60;;;;;;4934513;28;95597;-73
2022/09/15 07:50:37;;;;;;;5.30;2.50;;;19.50;84.20;;;;;;4934839;28;91958;-73
2022/09/15 07:53:04;;;;;;;4.53;1.70;;;19.70;84.10;;;;;;4918632;28;92563;-73
2022/09/15 07:55:31;;;;;;;3.85;1.63;;;19.90;83.80;;;;;;4935868;28;92429;-73
2022/09/15 07:58:00;;;;;;;3.40;2.05;;;20.00;82.80;;;;;;4901066;28;97345;-73
2022/09/15 08:00:27;;;;;;;5.72;2.95;;;20.30;82.60;;;;;;4935780;28;95456;-73
2022/09/15 08:02:55;;;;;;;2.83;1.52;;;20.60;81.80;;;;;;4934218;28;92549;-73
2022/09/15 08:05:26;;;;;;;7.20;1.88;;;20.90;81.00;;;;;;4935911;28;92429;-73
2022/09/15 08:07:54;;;;;;;4.07;1.35;;;21.10;80.30;;;;;;4935501;28;93726;-73
2022/09/15 08:10:23;;;;;;;4.72;1.30;;;21.20;79.60;;;;;;4934438;28;92987;-73
2022/09/15 08:12:51;;;;;;;4.78;1.45;;;21.10;78.90;;;;;;4933256;28;109952;-73
2022/09/15 08:15:19;;;;;;;3.97;1.13;;;21.10;79.20;;;;;;4937804;28;91683;-73
2022/09/15 08:17:46;;;;;;;3.88;1.38;;;21.10;79.40;;;;;;4937214;28;96017;-73
2022/09/15 08:20:13;;;;;;;7.45;1.42;;;21.00;79.00;;;;;;4938660;28;93009;-73
2022/09/15 08:22:41;;;;;;;4.90;1.90;;;21.00;79.40;;;;;;4937653;28;94820;-73
2022/09/15 08:25:08;;;;;;;3.95;1.40;;;21.00;79.30;;;;;;4938719;28;92399;-73
2022/09/15 08:27:35;;;;;;;4.70;1.27;;;21.00;78.90;;;;;;4937670;28;95875;-73
2022/09/15 08:30:03;;;;;;;5.05;1.42;;;20.90;79.20;;;;;;4938540;28;92508;-73
2022/09/15 08:32:30;;;;;;;4.35;1.40;;;20.90;79.40;;;;;;4938830;28;92436;-73
2022/09/15 08:34:57;;;;;;;4.03;1.20;;;20.70;79.20;;;;;;4937024;28;93085;-73
2022/09/15 08:37:24;;;;;;;4.93;2.78;;;20.50;79.70;;;;;;4937442;28;93171;-73
2022/09/15 08:39:51;;;;;;;4.28;1.88;;;20.30;79.90;;;;;;4938391;28;93136;-73
2022/09/15 08:42:19;;;;;;;5.78;1.45;;;20.20;79.90;;;;;;4938783;28;92441;-73
2022/09/15 08:45:04;;;;;;;4.10;1.95;;;20.20;79.70;;;;;;4937578;28;92536;-73
2022/09/15 08:47:37;;;;;;;2.25;1.20;;;20.20;79.70;;;;;;4936139;28;95616;-73
2022/09/15 08:50:14;;;;;;;5.80;1.55;;;20.20;79.80;;;;;;4936748;28;98181;-73
2022/09/15 08:52:47;;;;;;;2.28;1.20;;;20.30;79.60;;;;;;4938685;28;92411;-73
2022/09/15 08:55:53;;;;;;;2.63;2.42;;;20.40;79.60;;;;;;4938500;28;92546;-73
2022/09/15 08:58:28;;;;;;;5.13;1.08;;;20.50;79.40;;;;;;4937234;28;93057;-73
2022/09/15 09:01:33;;;;;;;8.27;1.33;;;20.40;79.90;;;;;;4938163;28;93106;-73
2022/09/15 09:04:09;;;;;;;5.82;1.65;;;20.50;80.10;;;;;;4938106;28;92353;-73
2022/09/15 09:06:48;;;;;;;4.68;3.20;;;20.50;79.50;;;;;;4937544;28;91740;-73
2022/09/15 09:09:15;;;;;;;3.10;1.10;;;20.60;79.90;;;;;;4938526;28;93327;-73
2022/09/15 09:12:01;;;;;;;4.22;1.67;;;20.80;79.60;;;;;;4937052;28;92917;-73
2022/09/15 09:15:14;;;;;;;4.63;1.42;;;21.00;78.80;;;;;;4936905;28;95499;-73
2022/09/15 09:18:11;;;;;;;4.85;1.35;;;21.20;77.60;;;;;;4922347;28;92668;-73
2022/09/15 09:21:08;;;;;;;3.10;2.00;;;21.40;77.20;;;;;;4937980;28;93828;-73
2022/09/15 09:23:49;;;;;;;5.82;1.85;;;21.50;76.80;;;;;;4937916;28;92995;-73
2022/09/15 09:26:16;;;;;;;4.75;1.55;;;21.50;76.30;;;;;;4936568;28;92532;-73
2022/09/15 09:29:16;;;;;;;2.97;0.90;;;21.50;76.30;;;;;;4936677;28;92457;-73
2022/09/15 09:31:46;;;;;;;7.05;2.15;;;21.70;74.80;;;;;;4938048;28;93929;-73
2022/09/15 09:34:25;;;;;;;4.22;1.55;;;21.50;73.90;;;;;;4936727;28;95852;-73
2022/09/15 09:36:57;;;;;;;4.32;2.45;;;21.40;74.10;;;;;;4937965;28;92347;-73
2022/09/15 09:39:26;;;;;;;4.95;2.15;;;21.40;74.30;;;;;;4937885;28;92497;-73
2022/09/15 09:41:54;;;;;;;4.35;2.58;;;21.50;74.40;;;;;;4934291;28;110069;-73
2022/09/15 09:44:30;;;;;;;6.45;2.10;;;21.60;73.80;;;;;;4937621;28;95486;-73
2022/09/15 09:46:58;;;;;;;4.40;1.60;;;21.40;73.30;;;;;;4937876;28;92565;-73
2022/09/15 09:49:29;;;;;;;4.90;2.85;;;21.40;75.20;;;;;;4936686;28;92548;-73
2022/09/15 09:52:02;;;;;;;3.20;2.47;;;21.30;76.20;;;;;;4937255;28;93314;-73
2022/09/15 09:54:31;;;;;;;9.63;2.13;;;21.20;77.70;;;;;;4937655;28;92770;-73
2022/09/15 09:57:25;;;;;;;3.30;2.75;;;21.10;78.30;;;;;;4936151;28;92594;-73
2022/09/15 09:59:52;;;;;;;;;;;21.10;79.30;;;;;;4938435;28;91690;-73
2022/09/15 10:02:25;;;;;;;4.68;2.53;;;20.90;79.50;;;;;;4953500;28;95917;-73
2022/09/15 10:05:18;;;;;;;6.07;1.87;;;20.90;80.10;;;;;;4935883;28;95318;-73
2022/09/15 10:07:46;;;;;;;2.95;2.53;;;21.00;79.60;;;;;;4936370;28;94871;-73
2022/09/15 10:10:22;;;;;;;6.32;2.85;;;21.10;80.10;;;;;;4937135;28;93183;-73
2022/09/15 10:12:54;;;;;;;2.78;1.58;;;21.30;79.20;;;;;;4937144;28;92517;-73
2022/09/15 10:15:24;;;;;;;6.50;1.67;;;21.50;79.30;;;;;;4937140;28;92897;-73
2022/09/15 10:17:53;;;;;;;3.75;1.73;;;21.70;79.10;;;;;;4936033;28;92531;-73
2022/09/15 10:20:31;;;;;;;6.22;1.90;;;21.80;77.80;;;;;;4937310;28;92926;-73
2022/09/15 10:23:24;;;;;;;4.72;1.52;;;21.80;77.40;;;;;;4937031;28;93389;-73
2022/09/15 10:25:55;;;;;;;5.88;1.27;;;21.70;78.10;;;;;;4937099;28;95976;-73
2022/09/15 10:28:26;;;;;;;3.75;1.83;;;21.50;78.20;;;;;;4936178;28;92486;-73
2022/09/15 10:31:26;;;;;;;4.40;1.40;;;21.50;78.80;;;;;;4935338;28;101555;-73
2022/09/15 10:33:53;;;;;;;5.88;1.65;;;21.30;78.20;;;;;;4935524;28;96356;-73
2022/09/15 10:36:29;;;;;;;3.55;2.15;;;20.80;79.90;;;;;;4936512;28;95321;-73
2022/09/15 10:39:17;;;;;;;6.07;2.25;;;20.70;80.30;;;;;;4936124;28;92943;-73
2022/09/15 10:42:26;;;;;;;3.20;1.60;;;20.60;80.70;;;;;;4935090;28;92529;-73
2022/09/15 10:45:05;;;;;;;1.95;0.80;;;20.50;80.90;;;;;;4922610;28;93247;-72
2022/09/15 10:48:03;;;;;;;3.38;1.17;;;20.30;81.00;;;;;;4936464;28;93080;-72
2022/09/15 10:50:39;;;;;;;3.67;1.20;;;20.20;81.30;;;;;;4936961;28;92443;-72
2022/09/15 10:53:17;;;;;;;1.75;1.05;;;20.10;81.30;;;;;;4936861;28;91726;-72
2022/09/15 10:55:47;;;;;;;3.88;1.00;;;20.20;82.00;;;;;;4936807;28;93440;-72
2022/09/15 10:58:21;;;;;;;2.83;1.15;;;20.20;82.60;;;;;;4919306;28;94091;-73
2022/09/15 11:01:18;;;;;;;2.97;1.50;;;20.40;81.90;;;;;;4933894;28;94967;-72
2022/09/15 11:03:59;;;;;;;5.07;1.73;;;20.60;82.20;;;;;;4922368;28;96088;-72
2022/09/15 11:06:44;;;;;;;5.50;1.63;;;21.00;81.70;;;;;;4936727;28;94326;-73
2022/09/15 11:09:32;;;;;;;4.22;2.15;;;21.40;81.00;;;;;;4918608;28;95811;-73
2022/09/15 11:12:17;;;;;;;3.42;1.20;;;21.70;80.00;;;;;;4936769;28;92507;-73
2022/09/15 11:15:03;;;;;;;2.80;1.13;;;22.10;77.40;;;;;;4936723;28;92534;-73
2022/09/15 11:17:52;;;;;;;4.00;1.45;;;22.30;77.70;;;;;;4934654;28;96094;-73
2022/09/15 11:20:23;;;;;;;4.40;2.13;;;22.50;76.60;;;;;;4935043;28;94360;-73
2022/09/15 11:23:19;;;;;;;6.95;2.15;;;22.70;75.90;;;;;;4936496;28;92481;-73
2022/09/15 11:25:51;;;;;;;2.67;1.00;;;22.50;72.00;;;;;;4936518;28;92411;-73
2022/09/15 11:28:46;;;;;;;4.60;1.35;;;21.90;75.50;;;;;;4933502;28;95683;-73
2022/09/15 11:31:29;;;;;;;8.13;2.10;;;21.40;79.60;;;;;;4935411;28;95329;-73
2022/09/15 11:34:19;;;;;;;4.22;1.83;;;20.80;83.50;;;;;;4935253;28;92582;-73
2022/09/15 11:37:08;;;;;;;8.68;2.15;;;20.10;86.50;;;;;;4936354;28;92440;-73
2022/09/15 11:39:43;;;;;;;6.20;1.88;;;19.60;86.90;;;;;;4936001;28;93236;-73
2022/09/15 11:42:21;;;;;;;3.72;1.30;;;19.30;89.20;;;;;;4936119;28;92993;-73
2022/09/15 11:44:49;;;;;;;3.03;1.33;;;19.20;90.00;;;;;;4934981;28;92515;-73
2022/09/15 11:47:39;;;;;;;3.67;1.20;;;19.30;90.50;;;;;;4936384;28;91787;-73
2022/09/15 11:50:34;;;;;;;7.68;2.03;;;19.50;90.20;;;;;;4929356;28;93320;-73
2022/09/15 11:53:26;;;;;;;4.57;1.90;;;19.90;89.90;;;;;;4938718;28;92894;-73
2022/09/15 11:56:22;;;;;;;4.25;1.30;;;20.20;88.60;;;;;;4938436;28;95194;-73
2022/09/15 11:59:14;;;;;;;11.57;1.63;;;20.40;87.80;;;;;;4939075;28;92375;-73
2022/09/15 12:02:21;;;;;;;6.13;4.40;;;20.60;87.20;;;;;;4929878;28;93034;-73
2022/09/15 12:05:05;;;;;;;5.00;2.13;;;20.90;86.20;;;;;;4939240;28;93003;-73
2022/09/15 12:07:41;;;;;;;4.13;1.08;;;21.20;85.60;;;;;;4937530;28;92903;-73
2022/09/15 12:10:23;;;;;;;3.33;1.50;;;21.50;84.90;;;;;;4937793;28;92413;-73
2022/09/15 12:12:52;;;;;;;2.70;1.83;;;21.60;81.60;;;;;;4939236;28;93321;-73
2022/09/15 12:15:26;;;;;;;2.45;0.98;;;21.60;81.20;;;;;;4921702;28;93964;-73
2022/09/15 12:17:56;;;;;;;2.20;1.60;;;21.60;79.90;;;;;;4938013;28;92363;-73
2022/09/15 12:20:36;;;;;;;3.63;2.25;;;21.70;79.60;;;;;;4937537;28;92517;-73
2022/09/15 12:23:10;;;;;;;1.60;0.88;;;21.60;75.80;;;;;;4936510;28;95669;-73
2022/09/15 12:26:00;;;;;;;1.83;1.00;;;21.50;74.40;;;;;;4937805;28;94525;-73
2022/09/15 12:28:39;;;;;;;2.38;1.15;;;21.40;73.50;;;;;;4927905;28;93572;-73
2022/09/15 12:31:26;;;;;;;2.08;1.23;;;21.40;73.40;;;;;;4921597;28;92614;-73
2022/09/15 12:34:05;;;;;;;1.90;1.30;;;21.50;73.80;;;;;;4938684;28;93317;-73
2022/09/15 12:36:41;;;;;;;1.48;0.80;;;21.50;73.40;;;;;;4938621;28;92881;-73
2022/09/15 12:39:40;;;;;;;2.78;1.40;;;21.60;73.70;;;;;;4938736;28;92430;-73
2022/09/15 12:42:32;;;;;;;2.53;1.13;;;21.70;72.80;;;;;;4937891;28;91824;-73
2022/09/15 12:45:18;;;;;;;3.45;0.95;;;21.90;73.80;;;;;;4937226;28;94415;-73
2022/09/15 12:48:08;;;;;;;3.42;1.00;;;21.90;73.00;;;;;;4938820;28;93092;-73
2022/09/15 12:50:41;;;;;;;3.28;1.33;;;21.90;71.70;;;;;;4937528;28;94836;-73
2022/09/15 12:53:24;;;;;;;4.00;1.70;;;21.90;72.30;;;;;;4938700;28;92375;-73
2022/09/15 12:56:01;;;;;;;3.13;2.42;;;21.90;71.90;;;;;;4937418;28;93322;-73
2022/09/15 12:58:32;;;;;;;3.70;1.02;;;21.70;72.10;;;;;;4938217;28;97411;-73
2022/09/15 13:01:17;;;;;;;7.00;2.03;;;21.40;73.40;;;;;;4937877;28;92467;-73
2022/09/15 13:03:45;;;;;;;4.85;3.63;;;21.10;78.00;;;;;;4938765;28;92466;-73
2022/09/15 13:06:21;;;;;;;3.95;2.40;;;20.70;78.40;;;;;;4938296;28;93356;-73
2022/09/15 13:08:51;;;;;;;3.78;2.33;;;20.70;77.30;;;;;;4938787;28;92993;-73
2022/09/15 13:11:35;;;;;;;3.33;2.00;;;20.50;76.60;;;;;;4938284;28;92455;-72
2022/09/15 13:14:02;;;;;;;2.13;1.00;;;20.40;75.80;;;;;;4937148;28;92428;-73
2022/09/15 13:16:47;;;;;;;3.83;1.45;;;20.30;76.00;;;;;;4935451;28;95724;-73
2022/09/15 13:19:32;;;;;;;2.13;0.93;;;20.30;74.00;;;;;;4938012;28;95369;-72
2022/09/15 13:22:09;;;;;;;2.15;0.85;;;20.30;73.50;;;;;;4938472;28;92498;-73